Map

Track Data

SID SEASON NUMBER BASIN SUBBASIN NAME ISO_TIME NATURE LAT LON WMO_WIND WMO_PRES WMO_AGENCY TRACK_TYPE DIST2LAND LANDFALL IFLAG USA_AGENCY USA_ATCF_ID USA_LAT USA_LON USA_RECORD USA_STATUS USA_WIND USA_PRES USA_SSHS USA_R34_NE USA_R34_SE USA_R34_SW USA_R34_NW USA_R50_NE USA_R50_SE USA_R50_SW USA_R50_NW USA_R64_NE USA_R64_SE USA_R64_SW USA_R64_NW USA_POCI USA_ROCI USA_RMW USA_EYE TOKYO_LAT TOKYO_LON TOKYO_GRADE TOKYO_WIND TOKYO_PRES TOKYO_R50_DIR TOKYO_R50_LONG TOKYO_R50_SHORT TOKYO_R30_DIR TOKYO_R30_LONG TOKYO_R30_SHORT TOKYO_LAND CMA_LAT CMA_LON CMA_CAT CMA_WIND CMA_PRES HKO_LAT HKO_LON HKO_CAT HKO_WIND HKO_PRES NEWDELHI_LAT NEWDELHI_LON NEWDELHI_GRADE NEWDELHI_WIND NEWDELHI_PRES NEWDELHI_CI NEWDELHI_DP NEWDELHI_POCI REUNION_LAT REUNION_LON REUNION_TYPE REUNION_WIND REUNION_PRES REUNION_TNUM REUNION_CI REUNION_RMW REUNION_R34_NE REUNION_R34_SE REUNION_R34_SW REUNION_R34_NW REUNION_R50_NE REUNION_R50_SE REUNION_R50_SW REUNION_R50_NW REUNION_R64_NE REUNION_R64_SE REUNION_R64_SW REUNION_R64_NW BOM_LAT BOM_LON BOM_TYPE BOM_WIND BOM_PRES BOM_TNUM BOM_CI BOM_RMW BOM_R34_NE BOM_R34_SE BOM_R34_SW BOM_R34_NW BOM_R50_NE BOM_R50_SE BOM_R50_SW BOM_R50_NW BOM_R64_NE BOM_R64_SE BOM_R64_SW BOM_R64_NW BOM_ROCI BOM_POCI BOM_EYE BOM_POS_METHOD BOM_PRES_METHOD NADI_LAT NADI_LON NADI_CAT NADI_WIND NADI_PRES WELLINGTON_LAT WELLINGTON_LON WELLINGTON_WIND WELLINGTON_PRES DS824_LAT DS824_LON DS824_STAGE DS824_WIND DS824_PRES TD9636_LAT TD9636_LON TD9636_STAGE TD9636_WIND TD9636_PRES TD9635_LAT TD9635_LON TD9635_WIND TD9635_PRES TD9635_ROCI NEUMANN_LAT NEUMANN_LON NEUMANN_CLASS NEUMANN_WIND NEUMANN_PRES MLC_LAT MLC_LON MLC_CLASS MLC_WIND MLC_PRES USA_GUST BOM_GUST BOM_GUST_PER REUNION_GUST REUNION_GUST_PER USA_SEAHGT USA_SEARAD_NE USA_SEARAD_SE USA_SEARAD_SW USA_SEARAD_NW STORM_SPEED STORM_DIR
1975266N10325 1975 99 NA NA GLADYS 1975-09-22 18:00:00 TS 10.3000 -34.8000 25 1012 hurdat_atl main 1579 1571 O_____________ hurdat_atl AL151975 10.3000 -34.8000 TD 25 1012 -1 10 286
1975266N10325 1975 99 NA NA GLADYS 1975-09-22 21:00:00 TS 10.4402 -35.3049 main 1571 1571 P_____________ AL151975 10.4402 -35.3049 TD 25 1012 -1 10 287
1975266N10325 1975 99 NA NA GLADYS 1975-09-23 00:00:00 TS 10.6000 -35.8000 25 1012 hurdat_atl main 1576 1573 O_____________ hurdat_atl AL151975 10.6000 -35.8000 TD 25 1012 -1 10 290
1975266N10325 1975 99 NA NA GLADYS 1975-09-23 03:00:00 TS 10.7925 -36.2725 main 1583 1580 P_____________ AL151975 10.7925 -36.2725 TD 25 1012 -1 10 294
1975266N10325 1975 99 NA NA GLADYS 1975-09-23 06:00:00 TS 11.0000 -36.7000 25 1012 hurdat_atl main 1594 1592 O_____________ hurdat_atl AL151975 11.0000 -36.7000 TD 25 1012 -1 9 298
1975266N10325 1975 99 NA NA GLADYS 1975-09-23 09:00:00 TS 11.2074 -37.0576 main 1607 1607 P_____________ AL151975 11.2074 -37.0576 TD 25 1012 -1 8 300
1975266N10325 1975 99 NA NA GLADYS 1975-09-23 12:00:00 TS 11.4000 -37.4000 25 1012 hurdat_atl main 1624 1622 O_____________ hurdat_atl AL151975 11.4000 -37.4000 TD 25 1012 -1 8 295
1975266N10325 1975 99 NA NA GLADYS 1975-09-23 15:00:00 TS 11.5500 -37.8076 main 1639 1635 P_____________ AL151975 11.5500 -37.8076 TD 27 1011 -1 8 291
1975266N10325 1975 99 NA NA GLADYS 1975-09-23 18:00:00 TS 11.7000 -38.2000 30 1010 hurdat_atl main 1645 1644 O_____________ hurdat_atl AL151975 11.7000 -38.2000 TD 30 1010 -1 8 297
1975266N10325 1975 99 NA NA GLADYS 1975-09-23 21:00:00 TS 11.8999 -38.5000 main 1646 1629 P_____________ AL151975 11.8999 -38.5000 TD 30 1010 -1 7 304
1975266N10325 1975 99 NA NA GLADYS 1975-09-24 00:00:00 TS 12.1000 -38.8000 30 1010 hurdat_atl main 1629 1598 O_____________ hurdat_atl AL151975 12.1000 -38.8000 TD 30 1010 -1 8 296
1975266N10325 1975 99 NA NA GLADYS 1975-09-24 03:00:00 TS 12.2426 -39.2150 main 1598 1574 P_____________ AL151975 12.2426 -39.2150 TD 30 1010 -1 8 291
1975266N10325 1975 99 NA NA GLADYS 1975-09-24 06:00:00 TS 12.4000 -39.6000 30 1010 hurdat_atl main 1574 1563 O_____________ hurdat_atl AL151975 12.4000 -39.6000 TD 30 1010 -1 7 303
1975266N10325 1975 99 NA NA GLADYS 1975-09-24 09:00:00 TS 12.6274 -39.8301 main 1569 1565 P_____________ AL151975 12.6274 -39.8301 TD 30 1010 -1 6 322
1975266N10325 1975 99 NA NA GLADYS 1975-09-24 12:00:00 TS 12.9000 -40.0000 30 1010 hurdat_atl main 1571 1568 O_____________ hurdat_atl AL151975 12.9000 -40.0000 TD 30 1010 -1 7 328
1975266N10325 1975 99 NA NA GLADYS 1975-09-24 15:00:00 TS 13.1849 -40.1851 main 1575 1572 P_____________ AL151975 13.1849 -40.1851 TD 32 1007 -1 7 327
1975266N10325 1975 99 NA NA GLADYS 1975-09-24 18:00:00 TS 13.5000 -40.4000 35 1005 hurdat_atl main 1579 1577 O_____________ hurdat_atl AL151975 13.5000 -40.4000 TS 35 1005 0 8 326
1975266N10325 1975 99 NA NA GLADYS 1975-09-24 21:00:00 TS 13.8499 -40.6551 main 1576 1576 P_____________ AL151975 13.8499 -40.6551 TS 37 1005 0 9 320
1975266N10325 1975 99 NA NA GLADYS 1975-09-25 00:00:00 TS 14.2000 -41.0000 40 1005 hurdat_atl main 1583 1567 O_____________ hurdat_atl AL151975 14.2000 -41.0000 TS 40 1005 0 10 310
1975266N10325 1975 99 NA NA GLADYS 1975-09-25 03:00:00 TS 14.5076 -41.4701 main 1568 1555 P_____________ AL151975 14.5076 -41.4701 TS 45 1002 0 11 302
1975266N10325 1975 99 NA NA GLADYS 1975-09-25 06:00:00 TS 14.8000 -42.0000 50 1000 hurdat_atl main 1556 1544 O_____________ hurdat_atl AL151975 14.8000 -42.0000 TS 50 1000 0 12 301
1975266N10325 1975 99 NA NA GLADYS 1975-09-25 09:00:00 TS 15.1149 -42.5000 main 1546 1537 P_____________ AL151975 15.1149 -42.5000 TS 55 1000 0 11 302
1975266N10325 1975 99 NA NA GLADYS 1975-09-25 12:00:00 TS 15.4000 -43.0000 60 1000 hurdat_atl main 1539 1526 O_____________ hurdat_atl AL151975 15.4000 -43.0000 TS 60 1000 0 11 297
1975266N10325 1975 99 NA NA GLADYS 1975-09-25 15:00:00 TS 15.6149 -43.5002 main 1526 1511 P_____________ AL151975 15.6149 -43.5002 TS 62 995 0 10 293
1975266N10325 1975 99 NA NA GLADYS 1975-09-25 18:00:00 TS 15.8000 -44.0000 65 990 hurdat_atl main 1513 1498 O_____________ hurdat_atl AL151975 15.8000 -44.0000 HU 65 990 1 10 293
1975266N10325 1975 99 NA NA GLADYS 1975-09-25 21:00:00 TS 16.0148 -44.4925 main 1498 1485 P_____________ AL151975 16.0148 -44.4925 HU 65 990 1 10 293
1975266N10325 1975 99 NA NA GLADYS 1975-09-26 00:00:00 TS 16.2000 -45.0000 65 990 hurdat_atl main 1485 1464 O_____________ hurdat_atl AL151975 16.2000 -45.0000 HU 65 990 1 10 287
1975266N10325 1975 99 NA NA GLADYS 1975-09-26 03:00:00 TS 16.3146 -45.5052 main 1464 1440 P_____________ AL151975 16.3146 -45.5052 HU 65 990 1 11 281
1975266N10325 1975 99 NA NA GLADYS 1975-09-26 06:00:00 TS 16.4000 -46.1000 65 990 hurdat_atl main 1440 1414 O_____________ hurdat_atl AL151975 16.4000 -46.1000 HU 65 990 1 13 278
1975266N10325 1975 99 NA NA GLADYS 1975-09-26 09:00:00 TS 16.5001 -46.8626 main 1409 1382 P_____________ AL151975 16.5001 -46.8626 HU 65 990 1 15 277
1975266N10325 1975 99 NA NA GLADYS 1975-09-26 12:00:00 TS 16.6000 -47.7000 65 990 hurdat_atl main 1382 1359 O_____________ hurdat_atl AL151975 16.6000 -47.7000 HU 65 990 1 16 277
1975266N10325 1975 99 NA NA GLADYS 1975-09-26 15:00:00 TS 16.6924 -48.5151 main 1359 1332 P_____________ AL151975 16.6924 -48.5151 HU 65 990 1 15 277
1975266N10325 1975 99 NA NA GLADYS 1975-09-26 18:00:00 TS 16.8000 -49.3000 65 990 hurdat_atl main 1332 1314 O_____________ hurdat_atl AL151975 16.8000 -49.3000 HU 65 990 1 14 279
1975266N10325 1975 99 NA NA GLADYS 1975-09-26 21:00:00 TS 16.9270 -50.0077 main 1314 1306 P_____________ AL151975 16.9270 -50.0077 HU 65 990 1 14 283
1975266N10325 1975 99 NA NA GLADYS 1975-09-27 00:00:00 TS 17.1000 -50.7000 65 990 hurdat_atl main 1310 1272 O_____________ hurdat_atl AL151975 17.1000 -50.7000 HU 65 990 1 14 286
1975266N10325 1975 99 NA NA GLADYS 1975-09-27 03:00:00 TS 17.3273 -51.4426 main 1272 1223 P_____________ AL151975 17.3273 -51.4426 HU 65 990 1 15 289
1975266N10325 1975 99 NA NA GLADYS 1975-09-27 06:00:00 TS 17.6000 -52.2000 65 990 hurdat_atl main 1223 1187 O_____________ hurdat_atl AL151975 17.6000 -52.2000 HU 65 990 1 16 291
1975266N10325 1975 99 NA NA GLADYS 1975-09-27 09:00:00 TS 17.8923 -52.9576 main 1179 1149 P_____________ AL151975 17.8923 -52.9576 HU 65 990 1 16 293
1975266N10325 1975 99 NA NA GLADYS 1975-09-27 12:00:00 TS 18.2000 -53.7000 65 990 hurdat_atl main 1149 1123 O_____________ hurdat_atl AL151975 18.2000 -53.7000 HU 65 990 1 15 294
1975266N10325 1975 99 NA NA GLADYS 1975-09-27 15:00:00 TS 18.4997 -54.4152 main 1125 1103 P_____________ AL151975 18.4997 -54.4152 HU 65 990 1 15 294
1975266N10325 1975 99 NA NA GLADYS 1975-09-27 18:00:00 TS 18.8000 -55.1000 65 990 hurdat_atl main 1106 1045 O_____________ hurdat_atl AL151975 18.8000 -55.1000 HU 65 990 1 14 296
1975266N10325 1975 99 NA NA GLADYS 1975-09-27 21:00:00 TS 19.1299 -55.7798 main 1034 974 P_____________ AL151975 19.1299 -55.7798 HU 65 991 1 14 296
1975266N10325 1975 99 NA NA GLADYS 1975-09-28 00:00:00 TS 19.4000 -56.4000 65 992 hurdat_atl main 974 923 O_____________ hurdat_atl AL151975 19.4000 -56.4000 HU 65 992 1 12 290
1975266N10325 1975 99 NA NA GLADYS 1975-09-28 03:00:00 TS 19.5298 -56.9379 main 923 872 P_____________ AL151975 19.5298 -56.9379 HU 65 992 1 10 282
1975266N10325 1975 99 NA NA GLADYS 1975-09-28 06:00:00 TS 19.6000 -57.4000 65 992 hurdat_atl main 872 832 O_____________ hurdat_atl AL151975 19.6000 -57.4000 HU 65 992 1 8 280
1975266N10325 1975 99 NA NA GLADYS 1975-09-28 09:00:00 TS 19.6771 -57.7928 main 832 793 P_____________ AL151975 19.6771 -57.7928 HU 65 996 1 8 285
1975266N10325 1975 99 NA NA GLADYS 1975-09-28 12:00:00 TS 19.8000 -58.2000 65 1000 hurdat_atl main 793 746 O_____________ hurdat_atl AL151975 19.8000 -58.2000 HU 65 1000 1 9 290
1975266N10325 1975 99 NA NA GLADYS 1975-09-28 15:00:00 TS 19.9976 -58.7352 main 746 694 P_____________ AL151975 19.9976 -58.7352 HU 65 999 1 12 296
1975266N10325 1975 99 NA NA GLADYS 1975-09-28 18:00:00 TS 20.3000 -59.3000 65 998 hurdat_atl main 694 659 O_____________ hurdat_atl AL151975 20.3000 -59.3000 HU 65 998 1 12 306
1975266N10325 1975 99 NA NA GLADYS 1975-09-28 21:00:00 TS 20.7197 -59.8001 main 659 636 P_____________ AL151975 20.7197 -59.8001 HU 65 996 1 13 314
1975266N10325 1975 99 NA NA GLADYS 1975-09-29 00:00:00 TS 21.2000 -60.3000 65 995 hurdat_atl main 636 616 O_____________ hurdat_atl AL151975 21.2000 -60.3000 HU 65 995 1 13 314
1975266N10325 1975 99 NA NA GLADYS 1975-09-29 03:00:00 TS 21.6498 -60.8354 main 616 602 P_____________ AL151975 21.6498 -60.8354 HU 67 992 1 14 311
1975266N10325 1975 99 NA NA GLADYS 1975-09-29 06:00:00 TS 22.1000 -61.4000 70 990 hurdat_atl main 602 592 O_____________ hurdat_atl AL151975 22.1000 -61.4000 HU 70 990 1 14 311
1975266N10325 1975 99 NA NA GLADYS 1975-09-29 09:00:00 TS 22.5723 -61.9851 main 600 594 P_____________ AL151975 22.5723 -61.9851 HU 70 990 1 14 309
1975266N10325 1975 99 NA NA GLADYS 1975-09-29 12:00:00 TS 23.0000 -62.6000 70 990 hurdat_atl main 601 596 O_____________ hurdat_atl AL151975 23.0000 -62.6000 HU 70 990 1 14 303
1975266N10325 1975 99 NA NA GLADYS 1975-09-29 15:00:00 TS 23.3298 -63.2429 main 601 597 P_____________ AL151975 23.3298 -63.2429 HU 72 987 1 13 297
1975266N10325 1975 99 NA NA GLADYS 1975-09-29 18:00:00 TS 23.6000 -63.9000 75 985 hurdat_atl main 607 604 O_____________ hurdat_atl AL151975 23.6000 -63.9000 HU 75 985 1 13 294
1975266N10325 1975 99 NA NA GLADYS 1975-09-29 21:00:00 TS 23.8572 -64.5504 main 623 620 P_____________ AL151975 23.8572 -64.5504 HU 77 980 1 13 293
1975266N10325 1975 99 NA NA GLADYS 1975-09-30 00:00:00 TS 24.1000 -65.2000 80 975 hurdat_atl main 638 638 O_____________ hurdat_atl AL151975 24.1000 -65.2000 HU 80 975 1 13 293
1975266N10325 1975 99 NA NA GLADYS 1975-09-30 03:00:00 TS 24.3496 -65.8428 main 659 653 P_____________ AL151975 24.3496 -65.8428 HU 80 975 1 13 293
1975266N10325 1975 99 NA NA GLADYS 1975-09-30 06:00:00 TS 24.6000 -66.5000 80 975 hurdat_atl main 659 648 O_____________ hurdat_atl AL151975 24.6000 -66.5000 HU 80 975 1 13 292
1975266N10325 1975 99 NA NA GLADYS 1975-09-30 09:00:00 TS 24.8498 -67.1927 main 648 645 P_____________ AL151975 24.8498 -67.1927 HU 80 975 1 14 291
1975266N10325 1975 99 NA NA GLADYS 1975-09-30 12:00:00 TS 25.1000 -67.9000 80 975 hurdat_atl main 651 641 O_____________ hurdat_atl AL151975 25.1000 -67.9000 HU 80 975 1 14 291
1975266N10325 1975 99 NA NA GLADYS 1975-09-30 15:00:00 TS 25.3498 -68.6077 main 641 619 P_____________ AL151975 25.3498 -68.6077 HU 80 975 1 14 292
1975266N10325 1975 99 NA NA GLADYS 1975-09-30 18:00:00 TS 25.6000 -69.3000 80 975 hurdat_atl main 619 603 O_____________ hurdat_atl AL151975 25.6000 -69.3000 HU 80 975 1 13 292
1975266N10325 1975 99 NA NA GLADYS 1975-09-30 21:00:00 TS 25.8348 -69.9729 main 598 592 P_____________ AL151975 25.8348 -69.9729 HU 80 975 1 13 293
1975266N10325 1975 99 NA NA GLADYS 1975-10-01 00:00:00 TS 26.1000 -70.6000 80 975 hurdat_atl main 599 595 O_____________ hurdat_atl AL151975 26.1000 -70.6000 HU 80 975 1 12 297
1975266N10325 1975 99 NA NA GLADYS 1975-10-01 03:00:00 TS 26.4049 -71.1953 main 609 606 P_____________ AL151975 26.4049 -71.1953 HU 80 975 1 12 305
1975266N10325 1975 99 NA NA GLADYS 1975-10-01 06:00:00 TS 26.8000 -71.7000 80 975 hurdat_atl main 639 633 O_____________ hurdat_atl AL151975 26.8000 -71.7000 HU 80 975 1 12 318
1975266N10325 1975 99 NA NA GLADYS 1975-10-01 09:00:00 TS 27.2897 -72.0880 main 637 632 P_____________ AL151975 27.2897 -72.0880 HU 80 975 1 13 331
1975266N10325 1975 99 NA NA GLADYS 1975-10-01 12:00:00 TS 27.9000 -72.4000 80 975 hurdat_atl main 638 635 O_____________ hurdat_atl AL151975 27.9000 -72.4000 HU 80 975 1 15 336
1975266N10325 1975 99 NA NA GLADYS 1975-10-01 15:00:00 TS 28.6126 -72.7518 main 646 646 P_____________ AL151975 28.6126 -72.7518 HU 85 972 2 16 341
1975266N10325 1975 99 NA NA GLADYS 1975-10-01 18:00:00 TS 29.4000 -73.0000 90 969 hurdat_atl main 676 603 O_____________ hurdat_atl AL151975 29.4000 -73.0000 HU 90 969 2 16 349
1975266N10325 1975 99 NA NA GLADYS 1975-10-01 21:00:00 TS 30.1696 -73.1115 main 594 525 P_____________ AL151975 30.1696 -73.1115 HU 95 961 2 16 0
1975266N10325 1975 99 NA NA GLADYS 1975-10-02 00:00:00 TS 31.0000 -73.0000 100 954 hurdat_atl main 525 471 O_____________ hurdat_atl AL151975 31.0000 -73.0000 HU 100 954 3 18 11
1975266N10325 1975 99 NA NA GLADYS 1975-10-02 03:00:00 TS 31.8887 -72.7189 main 470 442 P_____________ AL151975 31.8887 -72.7189 HU 105 948 3 21 22
1975266N10325 1975 99 NA NA GLADYS 1975-10-02 06:00:00 TS 32.9000 -72.1000 110 942 hurdat_atl main 446 433 O_____________ hurdat_atl AL151975 32.9000 -72.1000 HU 110 942 3 26 32
1975266N10325 1975 99 NA NA GLADYS 1975-10-02 09:00:00 TS 34.0553 -71.0920 main 442 442 P_____________ AL151975 34.0553 -71.0920 HU 115 940 4 31 38
1975266N10325 1975 99 NA NA GLADYS 1975-10-02 12:00:00 TS 35.3000 -69.8000 120 939 hurdat_atl main 517 517 O_____________ hurdat_atl AL151975 35.3000 -69.8000 HU 120 939 4 32 40
1975266N10325 1975 99 NA NA GLADYS 1975-10-02 15:00:00 TS 36.5000 -68.5453 main 587 509 P_____________ AL151975 36.5000 -68.5453 HU 120 939 4 34 42
1975266N10325 1975 99 NA NA GLADYS 1975-10-02 18:00:00 TS 37.8000 -67.0000 120 939 hurdat_atl main 503 478 O_____________ hurdat_atl AL151975 37.8000 -67.0000 HU 120 939 4 39 45
1975266N10325 1975 99 NA NA GLADYS 1975-10-02 21:00:00 TS 39.2670 -65.0040 main 467 375 P_____________ AL151975 39.2670 -65.0040 HU 115 944 4 45 49
1975266N10325 1975 99 NA NA GLADYS 1975-10-03 00:00:00 TS 40.8000 -62.6000 110 950 hurdat_atl main 373 342 O_____________ hurdat_atl AL151975 40.8000 -62.6000 HU 110 950 3 49 52
1975266N10325 1975 99 NA NA GLADYS 1975-10-03 03:00:00 TS 42.2530 -59.9368 main 336 316 P_____________ AL151975 42.2530 -59.9368 HU 97 955 3 51 55
1975266N10325 1975 99 NA NA GLADYS 1975-10-03 06:00:00 TS 43.7000 -57.0000 85 960 hurdat_atl main 337 179 O_____________ hurdat_atl AL151975 43.7000 -57.0000 HU 85 960 2 53 58
1975266N10325 1975 99 NA NA GLADYS 1975-10-03 09:00:00 TS 45.0791 -53.7475 main 166 117 P_____________ AL151975 45.0791 -53.7475 HU 85 960 2 54 57
1975266N10325 1975 99 NA NA GLADYS 1975-10-03 12:00:00 TS 46.6000 -50.6000 85 960 hurdat_atl main 180 180 O_____________ hurdat_atl AL151975 46.6000 -50.6000 HU 85 960 2 52 50
1975266N10325 1975 99 NA NA GLADYS 1975-10-03 15:00:00 TS 48.4164 -47.9546 main 355 355 P_____________ AL151975 48.4164 -47.9546 HU 80 967 1 51 41
1975266N10325 1975 99 NA NA GLADYS 1975-10-03 18:00:00 ET 50.5000 -45.5000 75 975 hurdat_atl main 582 582 O_____________ hurdat_atl AL151975 50.5000 -45.5000 EX 75 975 -4 54 37
1975266N10325 1975 99 NA NA GLADYS 1975-10-03 21:00:00 ET 52.7320 -42.8910 main 815 600 P_____________ AL151975 52.7320 -42.8910 EX 70 977 -4 56 37
1975266N10325 1975 99 NA NA GLADYS 1975-10-04 00:00:00 ET 55.0000 -40.0000 65 980 hurdat_atl main 593 O_____________ hurdat_atl AL151975 55.0000 -40.0000 EX 65 980 -4 56 36

About IBTrACS Database

This database is a web-friendly format of International Best Track Archive for Climate Stewardship (IBTrACS), a global best track data archive curated by NOAA dating back to 1842.

Updated: 2021-10-08